createdAt,value
2023-04-18T00:00:50.337Z,0.39
2023-04-18T00:01:50.469Z,0.35
2023-04-18T00:02:50.555Z,0.34
2023-04-18T00:03:50.751Z,0.34
2023-04-18T00:04:50.594Z,0.36
2023-04-18T00:05:50.299Z,0.38
2023-04-18T00:06:50.307Z,0.42
2023-04-18T00:07:50.297Z,0.47
2023-04-18T00:08:50.311Z,0.50
2023-04-18T00:09:50.293Z,0.50
2023-04-18T00:10:50.308Z,0.50
2023-04-18T00:11:50.273Z,0.50
2023-04-18T00:12:50.254Z,0.51
2023-04-18T00:13:50.250Z,0.50
2023-04-18T00:14:50.246Z,0.50
2023-04-18T00:15:50.246Z,0.50
2023-04-18T00:16:50.309Z,0.50
2023-04-18T00:17:50.403Z,0.50
2023-04-18T00:18:50.361Z,0.51
2023-04-18T00:19:50.418Z,0.50
2023-04-18T00:20:50.455Z,0.50
2023-04-18T00:21:50.521Z,0.50
2023-04-18T00:22:50.600Z,0.51
2023-04-18T00:23:50.649Z,0.51
2023-04-18T00:24:50.715Z,0.51
2023-04-18T00:25:50.772Z,0.50
2023-04-18T00:26:50.906Z,0.50
2023-04-18T00:27:50.888Z,0.51
2023-04-18T00:28:50.930Z,0.50
2023-04-18T00:29:50.993Z,0.50
2023-04-18T00:30:51.082Z,0.51
2023-04-18T00:31:51.101Z,0.50
2023-04-18T00:32:51.214Z,0.51
2023-04-18T00:33:51.219Z,0.50
2023-04-18T00:34:51.308Z,0.50
2023-04-18T00:35:51.338Z,0.50
2023-04-18T00:36:51.409Z,0.50
2023-04-18T00:37:51.479Z,0.51
2023-04-18T00:38:51.557Z,0.50
2023-04-18T00:39:51.592Z,0.50
2023-04-18T00:40:51.672Z,0.51
2023-04-18T00:41:51.706Z,0.51
2023-04-18T00:42:51.791Z,0.51
2023-04-18T00:43:51.833Z,0.50
2023-04-18T00:44:51.877Z,0.50
2023-04-18T00:45:51.996Z,0.51
2023-04-18T00:46:52.029Z,0.51
2023-04-18T00:47:52.177Z,0.51
2023-04-18T00:48:52.129Z,0.51
2023-04-18T00:49:52.190Z,0.51
2023-04-18T00:50:52.251Z,0.50
2023-04-18T00:51:52.314Z,0.51
2023-04-18T00:52:52.374Z,0.50
2023-04-18T00:53:52.438Z,0.51
2023-04-18T00:54:52.524Z,0.50
2023-04-18T00:55:52.547Z,0.51
2023-04-18T00:56:52.606Z,0.51
2023-04-18T00:57:52.659Z,0.50
2023-04-18T00:58:52.830Z,0.51
2023-04-18T00:59:52.786Z,0.51
2023-04-18T01:00:52.844Z,0.51
2023-04-18T01:01:53.099Z,0.51
2023-04-18T01:02:53.234Z,0.51
2023-04-18T01:03:53.181Z,0.51
2023-04-18T01:04:53.063Z,0.50
2023-04-18T01:05:53.087Z,0.50
2023-04-18T01:06:53.116Z,0.51
2023-04-18T01:07:53.180Z,0.51
2023-04-18T01:08:53.243Z,0.51
2023-04-18T01:09:53.315Z,0.50
2023-04-18T01:10:53.375Z,0.50
2023-04-18T01:11:53.396Z,0.51
2023-04-18T01:12:53.443Z,0.51
2023-04-18T01:13:53.495Z,0.51
2023-04-18T01:14:53.581Z,0.50
2023-04-18T01:15:53.646Z,0.51
2023-04-18T01:16:53.677Z,0.51
2023-04-18T01:17:53.789Z,0.51
2023-04-18T01:18:53.808Z,0.51
2023-04-18T01:19:53.867Z,0.51
2023-04-18T01:20:53.949Z,0.50
2023-04-18T01:21:53.996Z,0.51
2023-04-18T01:22:54.062Z,0.52
2023-04-18T01:23:54.121Z,0.51
2023-04-18T01:24:54.175Z,0.52
2023-04-18T01:25:54.242Z,0.51
2023-04-18T01:26:54.309Z,0.51
2023-04-18T01:27:54.374Z,0.51
2023-04-18T01:28:54.439Z,0.51
2023-04-18T01:29:54.516Z,0.50
2023-04-18T01:30:54.650Z,0.51
2023-04-18T01:31:54.612Z,0.51
2023-04-18T01:32:54.760Z,0.51
2023-04-18T01:33:54.737Z,0.51
2023-04-18T01:34:54.799Z,0.51
2023-04-18T01:35:54.867Z,0.51
2023-04-18T01:36:54.927Z,0.50
2023-04-18T01:37:54.978Z,0.51
2023-04-18T01:38:55.054Z,0.51
2023-04-18T01:39:55.111Z,0.51
2023-04-18T01:40:55.185Z,0.52
2023-04-18T01:41:55.269Z,0.51
2023-04-18T01:42:55.312Z,0.50
2023-04-18T01:43:55.371Z,0.51
2023-04-18T01:44:55.426Z,0.51
2023-04-18T01:45:55.496Z,0.51
2023-04-18T01:46:55.713Z,0.51
2023-04-18T01:47:55.710Z,0.51
2023-04-18T01:48:55.710Z,0.51
2023-04-18T01:49:55.746Z,0.50
2023-04-18T01:50:55.814Z,0.50
2023-04-18T01:51:55.872Z,0.51
2023-04-18T01:52:55.943Z,0.51
2023-04-18T01:53:56.004Z,0.50
2023-04-18T01:54:56.065Z,0.51
2023-04-18T01:55:56.139Z,0.51
2023-04-18T01:56:56.193Z,0.50
2023-04-18T01:57:56.254Z,0.51
2023-04-18T01:58:56.322Z,0.50
2023-04-18T01:59:56.382Z,0.51
2023-04-18T02:00:56.479Z,0.51
2023-04-18T02:01:56.556Z,0.52
2023-04-18T02:02:56.784Z,0.51
2023-04-18T02:03:56.805Z,0.51
2023-04-18T02:04:56.674Z,0.50
2023-04-18T02:05:56.734Z,0.51
2023-04-18T02:06:56.815Z,0.51
2023-04-18T02:07:56.855Z,0.52
2023-04-18T02:08:56.929Z,0.51
2023-04-18T02:09:57.007Z,0.51
2023-04-18T02:10:57.058Z,0.50
2023-04-18T02:11:57.120Z,0.51
2023-04-18T02:12:57.170Z,0.50
2023-04-18T02:13:57.238Z,0.51
2023-04-18T02:14:57.282Z,0.51
2023-04-18T02:15:57.431Z,0.52
2023-04-18T02:16:57.441Z,0.51
2023-04-18T02:17:57.455Z,0.51
2023-04-18T02:18:57.508Z,0.50
2023-04-18T02:19:57.536Z,0.51
2023-04-18T02:20:57.613Z,0.51
2023-04-18T02:21:57.670Z,0.51
2023-04-18T02:22:57.722Z,0.52
2023-04-18T02:23:57.784Z,0.51
2023-04-18T02:24:57.851Z,0.52
2023-04-18T02:25:57.906Z,0.51
2023-04-18T02:26:57.965Z,0.51
2023-04-18T02:27:58.020Z,0.51
2023-04-18T02:28:58.088Z,0.51
2023-04-18T02:29:58.158Z,0.51
2023-04-18T02:30:58.220Z,0.51
2023-04-18T02:31:58.341Z,0.50
2023-04-18T02:32:58.383Z,0.51
2023-04-18T02:33:58.390Z,0.52
2023-04-18T02:34:58.507Z,0.50
2023-04-18T02:35:58.516Z,0.50
2023-04-18T02:36:58.588Z,0.51
2023-04-18T02:37:58.636Z,0.52
2023-04-18T02:38:58.701Z,0.51
2023-04-18T02:39:58.774Z,0.50
2023-04-18T02:40:58.820Z,0.51
2023-04-18T02:41:58.899Z,0.51
2023-04-18T02:42:58.940Z,0.51
2023-04-18T02:43:59.018Z,0.51
2023-04-18T02:44:59.077Z,0.51
2023-04-18T02:45:59.153Z,0.50
2023-04-18T02:46:59.182Z,0.51
2023-04-18T02:47:59.278Z,0.51
2023-04-18T02:48:59.327Z,0.51
2023-04-18T02:49:59.376Z,0.52
2023-04-18T02:50:59.455Z,0.50
2023-04-18T02:51:59.482Z,0.51
2023-04-18T02:52:59.542Z,0.52
2023-04-18T02:53:59.598Z,0.52
2023-04-18T02:54:59.639Z,0.51
2023-04-18T02:55:59.692Z,0.51
2023-04-18T02:56:59.748Z,0.51
2023-04-18T02:57:59.809Z,0.51
2023-04-18T02:58:59.879Z,0.52
2023-04-18T02:59:59.940Z,0.51
2023-04-18T03:01:00.028Z,0.51
2023-04-18T03:02:00.207Z,0.50
2023-04-18T03:03:00.282Z,0.51
2023-04-18T03:04:00.197Z,0.51
2023-04-18T03:05:00.308Z,0.51
2023-04-18T03:06:00.325Z,0.50
2023-04-18T03:07:00.449Z,0.51
2023-04-18T03:08:00.460Z,0.51
2023-04-18T03:09:00.517Z,0.51
2023-04-18T03:10:00.567Z,0.51
2023-04-18T03:11:00.657Z,0.51
2023-04-18T03:12:00.708Z,0.50
2023-04-18T03:13:00.778Z,0.51
2023-04-18T03:14:00.844Z,0.51
2023-04-18T03:15:00.893Z,0.51
2023-04-18T03:16:01.020Z,0.51
2023-04-18T03:17:01.013Z,0.51
2023-04-18T03:18:01.151Z,0.52
2023-04-18T03:19:01.113Z,0.51
2023-04-18T03:20:01.168Z,0.51
2023-04-18T03:21:01.200Z,0.52
2023-04-18T03:22:01.248Z,0.51
2023-04-18T03:23:01.332Z,0.51
2023-04-18T03:24:01.370Z,0.52
2023-04-18T03:25:01.432Z,0.51
2023-04-18T03:26:01.484Z,0.51
2023-04-18T03:27:01.558Z,0.51
2023-04-18T03:28:01.616Z,0.51
2023-04-18T03:29:01.683Z,0.51
2023-04-18T03:30:01.781Z,0.51
2023-04-18T03:31:01.844Z,0.51
2023-04-18T03:32:01.881Z,0.51
2023-04-18T03:33:01.960Z,0.51
2023-04-18T03:34:01.987Z,0.51
2023-04-18T03:35:02.048Z,0.51
2023-04-18T03:36:02.097Z,0.50
2023-04-18T03:37:02.145Z,0.51
2023-04-18T03:38:02.216Z,0.51
2023-04-18T03:39:02.303Z,0.51
2023-04-18T03:40:02.351Z,0.51
2023-04-18T03:41:02.415Z,0.51
2023-04-18T03:42:02.475Z,0.51
2023-04-18T03:43:02.586Z,0.51
2023-04-18T03:44:02.599Z,0.51
2023-04-18T03:45:02.657Z,0.52
2023-04-18T03:46:02.757Z,0.51
2023-04-18T03:47:02.782Z,0.51
2023-04-18T03:48:02.893Z,0.51
2023-04-18T03:49:02.902Z,0.51
2023-04-18T03:50:02.978Z,0.51
2023-04-18T03:51:03.024Z,0.51
2023-04-18T03:52:03.083Z,0.51
2023-04-18T03:53:03.156Z,0.51
2023-04-18T03:54:03.217Z,0.51
2023-04-18T03:55:03.324Z,0.51
2023-04-18T03:56:03.356Z,0.51
2023-04-18T03:57:03.405Z,0.51
2023-04-18T03:58:03.454Z,0.51
2023-04-18T03:59:03.516Z,0.51
2023-04-18T04:00:03.567Z,0.51
2023-04-18T04:01:03.628Z,0.51
2023-04-18T04:02:03.824Z,0.51
2023-04-18T04:03:04.014Z,0.51
2023-04-18T04:04:03.858Z,0.51
2023-04-18T04:05:03.919Z,0.52
2023-04-18T04:06:03.921Z,0.52
2023-04-18T04:07:03.993Z,0.51
2023-04-18T04:08:04.053Z,0.51
2023-04-18T04:09:04.117Z,0.51
2023-04-18T04:10:04.184Z,0.52
2023-04-18T04:11:04.242Z,0.52
2023-04-18T04:12:04.268Z,0.52
2023-04-18T04:13:04.309Z,0.51
2023-04-18T04:14:04.369Z,0.51
2023-04-18T04:15:04.402Z,0.52
2023-04-18T04:16:04.464Z,0.52
2023-04-18T04:17:04.522Z,0.52
2023-04-18T04:18:04.609Z,0.51
2023-04-18T04:19:04.651Z,0.51
2023-04-18T04:20:04.709Z,0.51
2023-04-18T04:21:04.774Z,0.52
2023-04-18T04:22:04.833Z,0.51
2023-04-18T04:23:04.887Z,0.52
2023-04-18T04:24:04.945Z,0.51
2023-04-18T04:25:04.999Z,0.51
2023-04-18T04:26:05.060Z,0.51
2023-04-18T04:27:05.140Z,0.52
2023-04-18T04:28:05.165Z,0.51
2023-04-18T04:29:05.214Z,0.51
2023-04-18T04:30:05.276Z,0.51
2023-04-18T04:31:05.336Z,0.51
2023-04-18T04:32:05.522Z,0.51
2023-04-18T04:33:05.490Z,0.51
2023-04-18T04:34:05.519Z,0.51
2023-04-18T04:35:05.587Z,0.52
2023-04-18T04:36:05.652Z,0.50
2023-04-18T04:37:05.702Z,0.51
2023-04-18T04:38:05.765Z,0.52
2023-04-18T04:39:05.839Z,0.51
2023-04-18T04:40:05.885Z,0.51
2023-04-18T04:41:05.933Z,0.51
2023-04-18T04:42:05.988Z,0.51
2023-04-18T04:43:06.171Z,0.50
2023-04-18T04:44:06.089Z,0.51
2023-04-18T04:45:06.146Z,0.51
2023-04-18T04:46:06.218Z,0.51
2023-04-18T04:47:06.249Z,0.51
2023-04-18T04:48:06.343Z,0.51
2023-04-18T04:49:06.338Z,0.51
2023-04-18T04:50:06.407Z,0.52
2023-04-18T04:51:06.453Z,0.51
2023-04-18T04:52:06.490Z,0.51
2023-04-18T04:53:06.540Z,0.51
2023-04-18T04:54:06.615Z,0.51
2023-04-18T04:55:06.660Z,0.51
2023-04-18T04:56:06.717Z,0.52
2023-04-18T04:57:06.811Z,0.51
2023-04-18T04:58:06.855Z,0.51
2023-04-18T04:59:06.941Z,0.51
2023-04-18T05:00:06.964Z,0.52
2023-04-18T05:01:07.058Z,0.51
2023-04-18T05:02:07.198Z,0.51
2023-04-18T05:03:07.303Z,0.51
2023-04-18T05:04:07.330Z,0.51
2023-04-18T05:05:07.218Z,0.50
2023-04-18T05:06:07.263Z,0.51
2023-04-18T05:07:07.307Z,0.51
2023-04-18T05:08:07.355Z,0.51
2023-04-18T05:09:07.400Z,0.51
2023-04-18T05:10:07.463Z,0.51
2023-04-18T05:11:07.494Z,0.51
2023-04-18T05:12:07.692Z,0.51
2023-04-18T05:13:07.621Z,0.51
2023-04-18T05:14:07.648Z,0.52
2023-04-18T05:15:07.722Z,0.51
2023-04-18T05:16:07.766Z,0.51
2023-04-18T05:17:07.919Z,0.50
2023-04-18T05:18:08.251Z,0.51
2023-04-18T05:19:07.949Z,0.52
2023-04-18T05:20:07.991Z,0.51
2023-04-18T05:21:08.047Z,0.51
2023-04-18T05:22:08.113Z,0.51
2023-04-18T05:23:08.165Z,0.51
2023-04-18T05:24:08.232Z,0.52
2023-04-18T05:25:08.302Z,0.52
2023-04-18T05:26:08.701Z,0.52
2023-04-18T05:27:08.436Z,0.52
2023-04-18T05:28:08.571Z,0.52
2023-04-18T05:29:08.550Z,0.52
2023-04-18T05:30:08.616Z,0.52
2023-04-18T05:31:08.718Z,0.52
2023-04-18T05:32:08.740Z,0.52
2023-04-18T05:33:08.841Z,0.52
2023-04-18T05:34:08.851Z,0.52
2023-04-18T05:35:08.918Z,0.53
2023-04-18T05:36:08.980Z,0.53
2023-04-18T05:37:09.042Z,0.54
2023-04-18T05:38:09.212Z,0.54
2023-04-18T05:39:09.170Z,0.55
2023-04-18T05:40:09.708Z,0.56
2023-04-18T05:41:09.296Z,0.56
2023-04-18T05:42:09.348Z,0.58
2023-04-18T05:43:09.426Z,0.57
2023-04-18T05:44:09.724Z,0.58
2023-04-18T05:45:09.555Z,0.59
2023-04-18T05:46:09.655Z,0.59
2023-04-18T05:47:09.682Z,0.59
2023-04-18T05:48:10.271Z,0.59
2023-04-18T05:49:10.221Z,0.60
2023-04-18T05:50:10.213Z,0.60
2023-04-18T05:51:11.643Z,0.60
2023-04-18T05:52:09.898Z,0.62
2023-04-18T05:53:09.884Z,0.64
2023-04-18T05:54:10.212Z,0.63
2023-04-18T05:55:09.896Z,0.66
2023-04-18T05:56:09.951Z,0.68
2023-04-18T05:57:09.940Z,0.70
2023-04-18T05:58:10.241Z,0.72
2023-04-18T05:59:09.855Z,0.83
2023-04-18T06:00:10.263Z,0.83
2023-04-18T06:01:09.839Z,0.76
2023-04-18T06:02:09.895Z,0.64
2023-04-18T06:03:11.335Z,0.56
2023-04-18T06:04:09.890Z,0.62
2023-04-18T06:05:10.185Z,0.66
2023-04-18T06:06:09.813Z,0.75
2023-04-18T06:07:09.840Z,0.71
2023-04-18T06:08:10.210Z,0.74
2023-04-18T06:09:09.796Z,0.77
2023-04-18T06:10:10.215Z,0.76
2023-04-18T06:11:09.774Z,0.77
2023-04-18T06:12:09.780Z,0.75
2023-04-18T06:13:10.860Z,0.73
2023-04-18T06:14:10.189Z,0.74
2023-04-18T06:15:10.750Z,0.72
2023-04-18T06:16:10.416Z,0.72
2023-04-18T06:17:10.366Z,0.73
2023-04-18T06:18:10.064Z,0.71
2023-04-18T06:19:10.316Z,0.72
2023-04-18T06:20:10.158Z,0.72
2023-04-18T06:21:10.218Z,0.72
2023-04-18T06:22:10.229Z,0.72
2023-04-18T06:23:10.280Z,0.72
2023-04-18T06:24:10.226Z,0.72
2023-04-18T06:25:10.400Z,0.71
2023-04-18T06:26:10.034Z,0.71
2023-04-18T06:27:20.451Z,0.71
2023-04-18T06:28:09.956Z,0.71
2023-04-18T06:29:10.081Z,0.72
2023-04-18T06:30:10.017Z,0.72
2023-04-18T06:31:10.070Z,0.72
2023-04-18T06:32:10.322Z,0.72
2023-04-18T06:33:10.113Z,0.73
2023-04-18T06:34:10.162Z,0.71
2023-04-18T06:35:09.757Z,0.71
2023-04-18T06:36:09.686Z,0.72
2023-04-18T06:37:09.702Z,0.71
2023-04-18T06:38:09.757Z,0.71
2023-04-18T06:39:09.657Z,0.72
2023-04-18T06:40:09.659Z,0.72
2023-04-18T06:41:09.649Z,0.72
2023-04-18T06:42:09.629Z,0.74
2023-04-18T06:43:09.725Z,0.76
2023-04-18T06:44:09.624Z,0.74
2023-04-18T06:45:09.614Z,0.74
2023-04-18T06:46:09.659Z,0.74
2023-04-18T06:47:09.737Z,0.75
2023-04-18T06:48:10.916Z,0.75
2023-04-18T06:49:09.858Z,0.76
2023-04-18T06:50:10.235Z,0.74
2023-04-18T06:51:10.285Z,0.73
2023-04-18T06:52:10.234Z,0.74
2023-04-18T06:53:10.081Z,0.73
2023-04-18T06:54:10.137Z,0.73
2023-04-18T06:55:10.236Z,0.73
2023-04-18T06:56:10.270Z,0.73
2023-04-18T06:57:10.338Z,0.73
2023-04-18T06:58:10.404Z,0.73
2023-04-18T06:59:10.772Z,0.72
2023-04-18T07:00:10.728Z,0.72
2023-04-18T07:01:10.737Z,0.72
2023-04-18T07:02:10.689Z,0.71
2023-04-18T07:03:11.261Z,0.72
2023-04-18T07:04:11.496Z,0.72
2023-04-18T07:05:10.821Z,0.72
2023-04-18T07:06:10.945Z,0.71
2023-04-18T07:07:11.074Z,0.71
2023-04-18T07:08:11.016Z,0.71
2023-04-18T07:09:11.229Z,0.71
2023-04-18T07:10:11.136Z,0.71
2023-04-18T07:11:11.196Z,0.70
2023-04-18T07:12:11.258Z,0.71
2023-04-18T07:13:11.320Z,0.71
2023-04-18T07:14:11.929Z,0.71
2023-04-18T07:15:11.446Z,0.71
2023-04-18T07:16:11.507Z,0.70
2023-04-18T07:17:11.657Z,0.70
2023-04-18T07:18:11.895Z,0.70
2023-04-18T07:19:12.238Z,0.71
2023-04-18T07:20:14.176Z,0.69
2023-04-18T07:21:11.897Z,0.71
2023-04-18T07:22:11.935Z,0.70
2023-04-18T07:23:12.036Z,0.71
2023-04-18T07:24:12.504Z,0.70
2023-04-18T07:25:11.893Z,0.71
2023-04-18T07:26:11.905Z,0.69
2023-04-18T07:27:11.864Z,0.70
2023-04-18T07:28:12.274Z,0.69
2023-04-18T07:29:12.261Z,0.70
2023-04-18T07:30:11.835Z,0.70
2023-04-18T07:31:11.930Z,0.69
2023-04-18T07:32:11.832Z,0.69
2023-04-18T07:33:12.253Z,0.69
2023-04-18T07:34:12.374Z,0.69
2023-04-18T07:35:11.923Z,0.69
2023-04-18T07:36:11.987Z,0.69
2023-04-18T07:38:11.100Z,0.71
2023-04-18T07:39:12.270Z,0.72
2023-04-18T07:40:12.234Z,0.77
2023-04-18T07:41:12.302Z,0.80
2023-04-18T07:42:12.444Z,0.82
2023-04-18T07:43:12.373Z,0.85
2023-04-18T07:44:13.009Z,0.87
2023-04-18T07:45:12.463Z,0.89
2023-04-18T07:46:12.555Z,0.93
2023-04-18T07:47:12.534Z,0.96
2023-04-18T07:48:12.605Z,0.99
2023-04-18T07:49:13.174Z,1.02
2023-04-18T07:50:12.648Z,1.05
2023-04-18T07:51:12.757Z,1.09
2023-04-18T07:52:12.666Z,1.13
2023-04-18T07:53:12.695Z,1.16
2023-04-18T07:54:12.766Z,1.21
2023-04-18T07:55:12.854Z,1.23
2023-04-18T07:56:12.753Z,1.26
2023-04-18T07:57:12.767Z,1.28
2023-04-18T07:58:12.773Z,1.32
2023-04-18T07:59:13.012Z,1.38
2023-04-18T08:00:13.320Z,1.40
2023-04-18T08:01:13.277Z,1.49
2023-04-18T08:02:12.858Z,1.51
2023-04-18T08:03:13.427Z,1.53
2023-04-18T08:04:12.888Z,1.59
2023-04-18T08:06:11.834Z,1.73
2023-04-18T08:07:12.832Z,1.79
2023-04-18T08:08:12.831Z,1.86
2023-04-18T08:09:13.595Z,1.91
2023-04-18T08:10:12.843Z,1.96
2023-04-18T08:11:12.969Z,2.00
2023-04-18T08:12:12.858Z,2.06
2023-04-18T08:13:12.856Z,2.13
2023-04-18T08:14:13.258Z,2.21
2023-04-18T08:15:13.270Z,2.22
2023-04-18T08:16:14.259Z,2.32
2023-04-18T08:17:12.893Z,2.33
2023-04-18T08:18:12.899Z,2.34
2023-04-18T08:19:13.383Z,2.40
2023-04-18T08:20:12.893Z,2.49
2023-04-18T08:21:12.885Z,2.67
2023-04-18T08:22:12.859Z,2.78
2023-04-18T08:23:13.560Z,2.81
2023-04-18T08:24:12.867Z,2.86
2023-04-18T08:25:12.828Z,2.96
2023-04-18T08:26:13.299Z,3.03
2023-04-18T08:27:13.006Z,3.13
2023-04-18T08:28:12.888Z,3.11
2023-04-18T08:29:13.492Z,3.28
2023-04-18T08:30:12.793Z,3.29
2023-04-18T08:31:12.802Z,3.43
2023-04-18T08:32:12.871Z,3.48
2023-04-18T08:33:12.777Z,3.54
2023-04-18T08:34:12.771Z,3.72
2023-04-18T08:35:12.768Z,3.77
2023-04-18T08:36:12.769Z,3.83
2023-04-18T08:37:12.763Z,3.88
2023-04-18T08:38:12.747Z,3.99
2023-04-18T08:39:12.988Z,4.13
2023-04-18T08:40:12.768Z,4.25
2023-04-18T08:41:12.733Z,4.22
2023-04-18T08:42:12.719Z,4.32
2023-04-18T08:43:12.773Z,4.46
2023-04-18T08:44:12.926Z,4.43
2023-04-18T08:45:12.861Z,4.55
2023-04-18T08:46:12.763Z,4.66
2023-04-18T08:47:12.687Z,4.76
2023-04-18T08:48:12.685Z,4.88
2023-04-18T08:49:12.973Z,5.12
2023-04-18T08:50:12.781Z,5.15
2023-04-18T08:51:12.672Z,5.27
2023-04-18T08:52:12.696Z,5.45
2023-04-18T08:53:12.695Z,5.52
2023-04-18T08:54:12.795Z,5.63
2023-04-18T08:55:12.630Z,5.86
2023-04-18T08:56:12.657Z,5.91
2023-04-18T08:57:12.755Z,5.98
2023-04-18T08:58:12.784Z,6.20
2023-04-18T08:59:13.501Z,6.12
2023-04-18T09:00:12.877Z,6.19
2023-04-18T09:01:12.928Z,6.29
2023-04-18T09:02:12.990Z,6.32
2023-04-18T09:03:13.315Z,6.48
2023-04-18T09:04:13.075Z,6.53
2023-04-18T09:05:13.078Z,6.70
2023-04-18T09:06:13.157Z,6.88
2023-04-18T09:07:13.190Z,6.91
2023-04-18T09:08:13.273Z,7.26
2023-04-18T09:09:13.594Z,7.45
2023-04-18T09:10:13.370Z,7.55
2023-04-18T09:11:13.436Z,7.74
2023-04-18T09:12:13.520Z,8.01
2023-04-18T09:13:13.781Z,8.08
2023-04-18T09:14:13.824Z,8.05
2023-04-18T09:15:13.846Z,8.21
2023-04-18T09:16:13.790Z,8.33
2023-04-18T09:17:13.860Z,8.56
2023-04-18T09:18:14.320Z,8.34
2023-04-18T09:19:14.288Z,8.24
2023-04-18T09:20:13.924Z,3.27
2023-04-18T09:21:14.279Z,1.22
2023-04-18T09:22:14.017Z,0.94
2023-04-18T09:23:14.057Z,1.08
2023-04-18T09:24:14.373Z,1.35
2023-04-18T09:25:14.295Z,1.61
2023-04-18T09:26:14.260Z,1.65
2023-04-18T09:27:14.290Z,1.74
2023-04-18T09:28:14.786Z,2.06
2023-04-18T09:29:14.529Z,2.54
2023-04-18T09:30:14.464Z,2.77
2023-04-18T09:31:14.733Z,2.49
2023-04-18T09:32:14.796Z,2.25
2023-04-18T09:33:15.775Z,2.34
2023-04-18T09:34:15.741Z,2.33
2023-04-18T09:35:14.727Z,2.32
2023-04-18T09:36:14.789Z,2.47
2023-04-18T09:37:14.840Z,3.71
2023-04-18T09:38:14.833Z,3.35
2023-04-18T09:39:14.923Z,3.07
2023-04-18T09:40:15.293Z,2.92
2023-04-18T09:41:15.291Z,2.84
2023-04-18T09:42:15.009Z,2.71
2023-04-18T09:43:15.077Z,2.63
2023-04-18T09:44:15.718Z,1.61
2023-04-18T09:45:15.171Z,1.12
2023-04-18T09:46:15.303Z,0.74
2023-04-18T09:47:15.629Z,0.51
2023-04-18T09:48:15.352Z,0.50
2023-04-18T09:49:16.732Z,0.47
2023-04-18T09:50:15.626Z,0.44
2023-04-18T09:51:15.796Z,0.52
2023-04-18T09:52:15.795Z,0.56
2023-04-18T09:53:15.628Z,0.65
2023-04-18T09:54:15.803Z,0.53
2023-04-18T09:55:15.794Z,0.52
2023-04-18T09:56:15.637Z,0.50
2023-04-18T09:57:15.653Z,0.50
2023-04-18T09:58:15.658Z,0.54
2023-04-18T09:59:15.846Z,0.57
2023-04-18T10:00:15.839Z,0.58
2023-04-18T10:01:15.736Z,0.53
2023-04-18T10:02:15.735Z,0.50
2023-04-18T10:03:15.975Z,0.50
2023-04-18T10:04:16.034Z,0.50
2023-04-18T10:05:15.819Z,0.52
2023-04-18T10:06:15.799Z,0.55
2023-04-18T10:07:15.924Z,0.56
2023-04-18T10:08:15.843Z,0.59
2023-04-18T10:09:16.210Z,0.50
2023-04-18T10:10:16.310Z,0.50
2023-04-18T10:11:23.308Z,0.50
2023-04-18T10:12:15.891Z,0.50
2023-04-18T10:13:15.871Z,0.50
2023-04-18T10:14:17.056Z,0.51
2023-04-18T10:15:15.884Z,0.47
2023-04-18T10:16:15.901Z,0.46
2023-04-18T10:17:16.100Z,0.55
2023-04-18T10:18:16.359Z,0.54
2023-04-18T10:19:16.417Z,0.52
2023-04-18T10:20:16.002Z,0.49
2023-04-18T10:21:16.030Z,0.50
2023-04-18T10:22:16.102Z,0.53
2023-04-18T10:23:16.826Z,0.50
2023-04-18T10:24:17.095Z,0.51
2023-04-18T10:25:16.332Z,0.57
2023-04-18T10:26:16.351Z,0.53
2023-04-18T10:27:16.290Z,0.50
2023-04-18T10:28:16.173Z,0.52
2023-04-18T10:29:16.298Z,0.51
2023-04-18T10:30:16.280Z,0.57
2023-04-18T10:31:16.882Z,0.64
2023-04-18T10:32:16.409Z,0.91
2023-04-18T10:33:27.992Z,1.12
2023-04-18T10:34:16.837Z,1.13
2023-04-18T10:35:16.464Z,1.18
2023-04-18T10:36:16.460Z,1.37
2023-04-18T10:37:16.809Z,1.77
2023-04-18T10:38:16.465Z,2.56
2023-04-18T10:39:16.398Z,2.89
2023-04-18T10:40:16.401Z,3.13
2023-04-18T10:41:16.832Z,3.33
2023-04-18T10:42:16.895Z,3.45
2023-04-18T10:43:16.378Z,3.69
2023-04-18T10:44:16.739Z,4.00
2023-04-18T10:45:16.361Z,4.26
2023-04-18T10:46:28.333Z,4.63
2023-04-18T10:47:17.374Z,4.65
2023-04-18T10:48:16.848Z,4.66
2023-04-18T10:49:16.354Z,4.80
2023-04-18T10:50:16.473Z,5.12
2023-04-18T10:51:16.938Z,5.75
2023-04-18T10:52:16.309Z,6.75
2023-04-18T10:53:16.341Z,7.38
2023-04-18T10:54:16.482Z,7.83
2023-04-18T10:55:16.300Z,8.15
2023-04-18T10:56:16.316Z,8.69
2023-04-18T10:57:16.276Z,9.24
2023-04-18T10:58:16.319Z,9.72
2023-04-18T10:59:16.837Z,10.27
2023-04-18T11:00:16.256Z,10.76
2023-04-18T11:01:16.518Z,11.53
2023-04-18T11:02:16.271Z,12.02
2023-04-18T11:03:16.392Z,12.45
2023-04-18T11:04:16.583Z,13.33
2023-04-18T11:05:16.226Z,14.23
2023-04-18T11:06:16.332Z,14.81
2023-04-18T11:07:16.264Z,15.61
2023-04-18T11:08:16.655Z,17.02
2023-04-18T11:09:16.217Z,18.08
2023-04-18T11:10:16.357Z,18.46
2023-04-18T11:11:16.322Z,18.99
2023-04-18T11:12:16.263Z,20.16
2023-04-18T11:13:16.280Z,21.09
2023-04-18T11:14:16.554Z,22.25
2023-04-18T11:15:16.418Z,24.20
2023-04-18T11:16:16.861Z,24.76
2023-04-18T11:17:16.423Z,23.46
2023-04-18T11:18:16.433Z,21.72
2023-04-18T11:19:16.433Z,19.92
2023-04-18T11:20:16.825Z,16.88
2023-04-18T11:21:16.455Z,19.54
2023-04-18T11:22:16.474Z,17.33
2023-04-18T11:23:16.705Z,16.63
2023-04-18T11:24:16.504Z,16.95
2023-04-18T11:25:16.568Z,13.00
2023-04-18T11:26:16.561Z,8.77
2023-04-18T11:27:16.824Z,8.11
2023-04-18T11:28:16.627Z,8.19
2023-04-18T11:29:17.667Z,8.75
2023-04-18T11:30:16.696Z,10.05
2023-04-18T11:31:16.727Z,8.33
2023-04-18T11:32:16.909Z,8.78
2023-04-18T11:33:16.954Z,8.62
2023-04-18T11:34:16.843Z,9.08
2023-04-18T11:35:16.889Z,9.37
2023-04-18T11:36:16.888Z,9.84
2023-04-18T11:37:16.917Z,10.19
2023-04-18T11:38:17.348Z,10.89
2023-04-18T11:39:17.083Z,11.57
2023-04-18T11:40:16.974Z,12.18
2023-04-18T11:41:16.972Z,12.73
2023-04-18T11:42:17.045Z,13.52
2023-04-18T11:43:17.330Z,14.12
2023-04-18T11:44:16.965Z,14.91
2023-04-18T11:45:16.962Z,15.88
2023-04-18T11:46:17.038Z,16.35
2023-04-18T11:47:17.400Z,16.12
2023-04-18T11:48:16.981Z,16.21
2023-04-18T11:49:17.050Z,16.33
2023-04-18T11:50:17.077Z,16.37
2023-04-18T11:51:16.994Z,16.33
2023-04-18T11:52:16.996Z,16.44
2023-04-18T11:53:16.988Z,16.57
2023-04-18T11:54:16.993Z,16.49
2023-04-18T11:55:17.059Z,16.36
2023-04-18T11:56:17.016Z,16.53
2023-04-18T11:57:17.333Z,16.32
2023-04-18T11:58:17.029Z,16.33
2023-04-18T11:59:17.021Z,16.47
2023-04-18T12:00:17.040Z,16.45
2023-04-18T12:01:17.062Z,16.42
2023-04-18T12:02:17.415Z,16.34
2023-04-18T12:03:17.220Z,16.43
2023-04-18T12:05:16.367Z,16.48
2023-04-18T12:06:17.249Z,16.59
2023-04-18T12:07:17.341Z,16.40
2023-04-18T12:08:17.212Z,16.25
2023-04-18T12:09:17.205Z,16.39
2023-04-18T12:10:17.207Z,16.33
2023-04-18T12:11:17.240Z,16.42
2023-04-18T12:12:17.345Z,16.08
2023-04-18T12:13:17.277Z,16.07
2023-04-18T12:14:24.712Z,15.48
2023-04-18T12:15:17.288Z,15.51
2023-04-18T12:16:17.308Z,15.62
2023-04-18T12:17:17.346Z,15.68
2023-04-18T12:18:17.374Z,15.55
2023-04-18T12:19:17.263Z,15.29
2023-04-18T12:20:17.262Z,15.23
2023-04-18T12:21:17.247Z,15.12
2023-04-18T12:22:17.844Z,14.79
2023-04-18T12:23:17.343Z,15.04
2023-04-18T12:24:17.353Z,14.75
2023-04-18T12:25:17.219Z,14.61
2023-04-18T12:26:17.207Z,14.52
2023-04-18T12:27:17.374Z,14.61
2023-04-18T12:28:17.190Z,14.34
2023-04-18T12:29:17.182Z,14.34
2023-04-18T12:30:17.186Z,14.31
2023-04-18T12:31:17.217Z,14.30
2023-04-18T12:32:17.352Z,14.49
2023-04-18T12:33:17.349Z,14.33
2023-04-18T12:34:17.150Z,14.17
2023-04-18T12:35:17.277Z,14.24
2023-04-18T12:36:20.341Z,13.94
2023-04-18T12:37:17.346Z,13.97
2023-04-18T12:38:18.399Z,14.03
2023-04-18T12:39:17.111Z,14.15
2023-04-18T12:40:17.111Z,14.13
2023-04-18T12:41:17.106Z,14.08
2023-04-18T12:42:17.359Z,14.08
2023-04-18T12:43:17.130Z,14.10
2023-04-18T12:44:17.085Z,14.00
2023-04-18T12:45:17.072Z,13.96
2023-04-18T12:46:17.109Z,13.72
2023-04-18T12:47:17.415Z,13.62
2023-04-18T12:48:17.356Z,13.62
2023-04-18T12:49:17.105Z,13.41
2023-04-18T12:50:17.147Z,4.90
2023-04-18T12:51:17.212Z,2.44
2023-04-18T12:52:17.316Z,2.20
2023-04-18T12:53:17.374Z,1.98
2023-04-18T12:54:17.372Z,1.72
2023-04-18T12:55:17.266Z,1.86
2023-04-18T12:56:17.350Z,2.15
2023-04-18T12:57:17.252Z,3.52
2023-04-18T12:58:17.259Z,5.01
2023-04-18T12:59:17.310Z,5.64
2023-04-18T13:00:17.277Z,5.89
2023-04-18T13:01:17.402Z,6.23
2023-04-18T13:02:17.503Z,6.25
2023-04-18T13:03:17.535Z,6.26
2023-04-18T13:04:18.125Z,6.31
2023-04-18T13:05:17.484Z,6.16
2023-04-18T13:06:17.524Z,6.04
2023-04-18T13:07:17.861Z,6.06
2023-04-18T13:08:18.220Z,5.93
2023-04-18T13:09:17.695Z,5.94
2023-04-18T13:10:17.797Z,5.83
2023-04-18T13:11:17.808Z,5.81
2023-04-18T13:12:17.881Z,5.70
2023-04-18T13:13:17.942Z,5.74
2023-04-18T13:14:18.007Z,5.66
2023-04-18T13:15:18.091Z,5.73
2023-04-18T13:16:18.152Z,5.74
2023-04-18T13:17:18.364Z,5.66
2023-04-18T13:18:18.232Z,5.62
2023-04-18T13:19:18.288Z,5.52